createdAt,value
2016-05-17T00:00:07.703Z,17.48
2016-05-17T00:01:07.550Z,17.52
2016-05-17T00:02:07.865Z,17.42
2016-05-17T00:03:07.820Z,17.44
2016-05-17T00:04:07.808Z,17.51
2016-05-17T00:05:07.778Z,17.33
2016-05-17T00:06:07.766Z,17.38
2016-05-17T00:07:08.066Z,17.34
2016-05-17T00:08:07.740Z,17.36
2016-05-17T00:09:07.711Z,17.49
2016-05-17T00:10:07.542Z,17.34
2016-05-17T00:11:07.686Z,17.44
2016-05-17T00:12:07.673Z,17.42
2016-05-17T00:13:07.488Z,17.45
2016-05-17T00:14:07.647Z,17.29
2016-05-17T00:15:07.446Z,17.31
2016-05-17T00:16:07.605Z,17.3
2016-05-17T00:17:07.421Z,17.33
2016-05-17T00:18:07.563Z,17.16
2016-05-17T00:19:07.552Z,17.36
2016-05-17T00:20:07.538Z,17.46
2016-05-17T00:21:07.494Z,17.23
2016-05-17T00:22:07.575Z,17.24
2016-05-17T00:23:07.468Z,17.19
2016-05-17T00:24:07.315Z,17.29
2016-05-17T00:25:07.442Z,17.29
2016-05-17T00:26:07.429Z,17.46
2016-05-17T00:27:07.417Z,17.36
2016-05-17T00:28:07.388Z,17.24
2016-05-17T00:29:07.218Z,17.24
2016-05-17T00:30:07.206Z,17.41
2016-05-17T00:31:07.364Z,17.45
2016-05-17T00:32:07.337Z,17.38
2016-05-17T00:33:07.308Z,17.26
2016-05-17T00:34:07.294Z,17.2
2016-05-17T00:35:07.281Z,17.08
2016-05-17T00:36:07.269Z,17.02
2016-05-17T00:37:07.100Z,17.11
2016-05-17T00:38:07.069Z,17.19
2016-05-17T00:39:07.214Z,17.09
2016-05-17T00:40:06.886Z,17.06
2016-05-17T00:41:07.170Z,17.06
2016-05-17T00:42:07.157Z,17.29
2016-05-17T00:43:07.144Z,17.34
2016-05-17T00:44:07.116Z,17.34
2016-05-17T00:45:06.947Z,17.31
2016-05-17T00:46:07.091Z,17.09
2016-05-17T00:47:07.061Z,17.11
2016-05-17T00:48:07.049Z,17.12
2016-05-17T00:49:07.020Z,17.09
2016-05-17T00:50:07.007Z,17.12
2016-05-17T00:51:06.993Z,17.16
2016-05-17T00:52:07.184Z,17.34
2016-05-17T00:53:06.968Z,17.3
2016-05-17T00:54:06.815Z,17.12
2016-05-17T00:55:06.910Z,17.11
2016-05-17T00:56:06.913Z,17.26
2016-05-17T00:57:06.885Z,17.06
2016-05-17T00:58:06.872Z,17.11
2016-05-17T00:59:06.859Z,17.12
2016-05-17T01:00:06.846Z,17.15
2016-05-17T01:01:06.834Z,17.09
2016-05-17T01:02:06.821Z,17.08
2016-05-17T01:03:06.620Z,17.09
2016-05-17T01:04:06.795Z,17.11
2016-05-17T01:05:06.750Z,17.05
2016-05-17T01:06:06.737Z,17.15
2016-05-17T01:07:06.739Z,17.12
2016-05-17T01:08:06.712Z,16.93
2016-05-17T01:09:06.714Z,17.06
2016-05-17T01:10:06.670Z,17.15
2016-05-17T01:11:06.658Z,17.11
2016-05-17T01:12:06.488Z,17.16
2016-05-17T01:13:06.491Z,17.23
2016-05-17T01:14:06.619Z,17.2
2016-05-17T01:15:06.433Z,17.19
2016-05-17T01:16:06.249Z,17.38
2016-05-17T01:17:06.549Z,17.33
2016-05-17T01:18:06.520Z,17.31
2016-05-17T01:19:06.507Z,17.3
2016-05-17T01:20:06.494Z,17.23
2016-05-17T01:21:06.325Z,17.24
2016-05-17T01:22:06.655Z,17.15
2016-05-17T01:23:06.455Z,17.14
2016-05-17T01:24:06.426Z,17.14
2016-05-17T01:25:06.413Z,17.19
2016-05-17T01:26:06.385Z,17.11
2016-05-17T01:27:06.388Z,17.23
2016-05-17T01:28:06.374Z,17.27
2016-05-17T01:29:06.346Z,17.14
2016-05-17T01:30:06.333Z,17.22
2016-05-17T01:31:06.164Z,17.16
2016-05-17T01:32:06.135Z,17.29
2016-05-17T01:33:06.278Z,17.26
2016-05-17T01:34:06.110Z,17.24
2016-05-17T01:35:06.237Z,17.2
2016-05-17T01:36:06.225Z,17.15
2016-05-17T01:37:06.571Z,17.09
2016-05-17T01:38:06.214Z,17.26
2016-05-17T01:39:06.170Z,17.01
2016-05-17T01:40:06.156Z,17.19
2016-05-17T01:41:06.144Z,17.14
2016-05-17T01:42:05.959Z,17.16
2016-05-17T01:43:06.103Z,17.12
2016-05-17T01:44:06.074Z,17.14
2016-05-17T01:45:05.905Z,17.02
2016-05-17T01:46:06.047Z,16.99
2016-05-17T01:47:05.879Z,17.02
2016-05-17T01:48:06.007Z,17.01
2016-05-17T01:49:05.993Z,17.04
2016-05-17T01:50:05.981Z,16.99
2016-05-17T01:51:05.811Z,17.08
2016-05-17T01:52:05.877Z,17.11
2016-05-17T01:53:05.927Z,17.15
2016-05-17T01:54:05.757Z,17.16
2016-05-17T01:55:05.729Z,17.14
2016-05-17T01:56:05.715Z,17.24
2016-05-17T01:57:05.874Z,17.09
2016-05-17T01:58:05.862Z,17.22
2016-05-17T01:59:05.833Z,17.19
2016-05-17T02:00:05.804Z,17.12
2016-05-17T02:01:05.635Z,17.08
2016-05-17T02:02:05.623Z,17.14
2016-05-17T02:03:05.609Z,17.04
2016-05-17T02:04:05.581Z,17.08
2016-05-17T02:05:05.723Z,17.22
2016-05-17T02:06:05.712Z,17.22
2016-05-17T02:07:05.433Z,17.16
2016-05-17T02:08:05.670Z,17.06
2016-05-17T02:09:05.657Z,17.11
2016-05-17T02:10:05.628Z,17.12
2016-05-17T02:11:05.631Z,17.14
2016-05-17T02:12:05.447Z,17.06
2016-05-17T02:13:05.589Z,17.11
2016-05-17T02:14:05.561Z,16.94
2016-05-17T02:15:05.548Z,16.93
2016-05-17T02:16:05.535Z,17.04
2016-05-17T02:17:05.506Z,17.12
2016-05-17T02:18:05.509Z,17.16
2016-05-17T02:19:05.480Z,17.15
2016-05-17T02:20:05.422Z,17.01
2016-05-17T02:21:05.454Z,16.91
2016-05-17T02:22:05.441Z,16.78
2016-05-17T02:23:05.507Z,16.86
2016-05-17T02:24:05.729Z,17.06
2016-05-17T02:25:05.403Z,17.06
2016-05-17T02:26:05.374Z,17.12
2016-05-17T02:27:05.362Z,17.09
2016-05-17T02:28:05.318Z,17.01
2016-05-17T02:29:05.179Z,17.19
2016-05-17T02:30:05.307Z,17.08
2016-05-17T02:31:05.279Z,16.97
2016-05-17T02:32:05.110Z,16.93
2016-05-17T02:33:04.940Z,17.02
2016-05-17T02:34:05.240Z,17.11
2016-05-17T02:35:05.211Z,17.16
2016-05-17T02:36:05.182Z,17.05
2016-05-17T02:37:05.903Z,17.02
2016-05-17T02:38:05.157Z,17.12
2016-05-17T02:39:05.253Z,17.12
2016-05-17T02:40:05.022Z,17.11
2016-05-17T02:41:05.025Z,17.15
2016-05-17T02:42:05.105Z,17.11
2016-05-17T02:43:05.061Z,16.97
2016-05-17T02:44:05.047Z,16.87
2016-05-17T02:45:05.035Z,16.89
2016-05-17T02:46:05.022Z,16.86
2016-05-17T02:47:04.994Z,16.9
2016-05-17T02:48:04.981Z,16.9
2016-05-17T02:49:04.967Z,16.79
2016-05-17T02:50:04.938Z,16.84
2016-05-17T02:51:04.769Z,16.86
2016-05-17T02:52:04.789Z,16.72
2016-05-17T02:53:04.744Z,16.83
2016-05-17T02:54:04.888Z,16.71
2016-05-17T02:55:04.718Z,16.79
2016-05-17T02:56:04.846Z,16.83
2016-05-17T02:57:04.818Z,16.86
2016-05-17T02:58:04.804Z,16.91
2016-05-17T02:59:04.807Z,16.68
2016-05-17T03:00:04.779Z,16.89
2016-05-17T03:01:04.766Z,16.86
2016-05-17T03:02:04.737Z,16.76
2016-05-17T03:03:04.724Z,16.69
2016-05-17T03:04:04.695Z,16.76
2016-05-17T03:05:04.510Z,16.87
2016-05-17T03:06:04.670Z,16.68
2016-05-17T03:07:04.359Z,16.66
2016-05-17T03:08:04.628Z,16.61
2016-05-17T03:09:04.631Z,16.74
2016-05-17T03:10:04.586Z,16.72
2016-05-17T03:11:04.433Z,16.75
2016-05-17T03:12:04.561Z,16.71
2016-05-17T03:13:04.548Z,16.64
2016-05-17T03:14:04.534Z,16.76
2016-05-17T03:15:04.350Z,16.81
2016-05-17T03:16:04.493Z,16.58
2016-05-17T03:17:04.325Z,16.54
2016-05-17T03:18:04.295Z,16.56
2016-05-17T03:19:04.455Z,16.53
2016-05-17T03:20:04.411Z,16.65
2016-05-17T03:21:04.241Z,16.54
2016-05-17T03:22:04.868Z,16.78
2016-05-17T03:23:04.387Z,16.75
2016-05-17T03:24:04.343Z,16.78
2016-05-17T03:25:04.330Z,16.61
2016-05-17T03:26:04.410Z,16.58
2016-05-17T03:27:04.319Z,16.5
2016-05-17T03:28:04.291Z,16.65
2016-05-17T03:29:04.279Z,16.49
2016-05-17T03:30:04.249Z,16.47
2016-05-17T03:31:04.080Z,16.5
2016-05-17T03:32:04.207Z,16.47
2016-05-17T03:33:04.196Z,16.5
2016-05-17T03:34:04.011Z,16.54
2016-05-17T03:35:03.998Z,16.57
2016-05-17T03:36:04.141Z,16.66
2016-05-17T03:37:04.284Z,16.54
2016-05-17T03:38:04.099Z,16.65
2016-05-17T03:39:03.945Z,16.58
2016-05-17T03:40:04.090Z,16.68
2016-05-17T03:41:04.045Z,16.81
2016-05-17T03:42:04.048Z,16.61
2016-05-17T03:43:03.862Z,16.54
2016-05-17T03:44:04.006Z,16.5
2016-05-17T03:45:03.993Z,16.72
2016-05-17T03:46:03.980Z,16.83
2016-05-17T03:47:03.795Z,16.89
2016-05-17T03:48:03.782Z,16.86
2016-05-17T03:49:03.926Z,16.86
2016-05-17T03:50:03.913Z,16.9
2016-05-17T03:51:03.883Z,16.9
2016-05-17T03:52:03.716Z,16.86
2016-05-17T03:53:03.686Z,16.9
2016-05-17T03:54:03.814Z,16.83
2016-05-17T03:55:03.660Z,16.75
2016-05-17T03:56:03.788Z,16.75
2016-05-17T03:57:03.775Z,16.72
2016-05-17T03:58:03.763Z,16.54
2016-05-17T03:59:03.749Z,16.58
2016-05-17T04:00:03.721Z,16.66
2016-05-17T04:01:03.552Z,16.68
2016-05-17T04:02:03.695Z,16.68
2016-05-17T04:03:03.666Z,16.5
2016-05-17T04:04:03.653Z,16.58
2016-05-17T04:05:03.641Z,16.69
2016-05-17T04:06:03.613Z,16.72
2016-05-17T04:07:03.615Z,16.74
2016-05-17T04:08:03.587Z,16.66
2016-05-17T04:09:03.573Z,16.6
2016-05-17T04:10:03.545Z,16.43
2016-05-17T04:11:03.531Z,16.51
2016-05-17T04:12:03.519Z,16.46
2016-05-17T04:13:03.490Z,16.38
2016-05-17T04:14:03.493Z,16.29
2016-05-17T04:15:03.464Z,16.08
2016-05-17T04:16:03.451Z,16.2
2016-05-17T04:17:03.439Z,16.1
2016-05-17T04:18:03.410Z,16.32
2016-05-17T04:19:03.241Z,16.42
2016-05-17T04:20:03.383Z,16.51
2016-05-17T04:21:03.356Z,16.54
2016-05-17T04:22:03.578Z,16.56
2016-05-17T04:23:03.330Z,16.53
2016-05-17T04:24:03.302Z,16.53
2016-05-17T04:25:03.288Z,16.54
2016-05-17T04:26:03.119Z,16.54
2016-05-17T04:27:03.246Z,16.54
2016-05-17T04:28:03.249Z,16.6
2016-05-17T04:29:03.221Z,16.43
2016-05-17T04:30:03.052Z,16.51
2016-05-17T04:31:03.179Z,16.56
2016-05-17T04:32:03.151Z,16.57
2016-05-17T04:33:03.154Z,16.75
2016-05-17T04:34:03.156Z,16.66
2016-05-17T04:35:03.112Z,16.68
2016-05-17T04:36:02.942Z,16.74
2016-05-17T04:37:03.540Z,16.65
2016-05-17T04:38:03.527Z,16.71
2016-05-17T04:39:03.248Z,16.81
2016-05-17T04:40:03.016Z,16.66
2016-05-17T04:41:03.003Z,16.57
2016-05-17T04:42:02.990Z,16.65
2016-05-17T04:43:02.977Z,16.61
2016-05-17T04:44:02.964Z,16.66
2016-05-17T04:45:02.779Z,16.58
2016-05-17T04:46:02.923Z,16.65
2016-05-17T04:47:02.754Z,16.71
2016-05-17T04:48:02.912Z,16.58
2016-05-17T04:49:02.728Z,16.38
2016-05-17T04:50:02.839Z,16.33
2016-05-17T04:51:02.827Z,16.35
2016-05-17T04:52:02.985Z,16.41
2016-05-17T04:53:02.801Z,16.23
2016-05-17T04:54:02.804Z,16.2
2016-05-17T04:55:02.760Z,16.28
2016-05-17T04:56:02.575Z,16.42
2016-05-17T04:57:02.733Z,16.39
2016-05-17T04:58:02.721Z,16.5
2016-05-17T04:59:02.692Z,16.38
2016-05-17T05:00:02.679Z,16.2
2016-05-17T05:01:02.651Z,16.21
2016-05-17T05:02:02.482Z,16.28
2016-05-17T05:03:02.625Z,16.29
2016-05-17T05:04:02.612Z,16.29
2016-05-17T05:05:02.583Z,16.21
2016-05-17T05:06:02.570Z,16.29
2016-05-17T05:07:02.557Z,16.28
2016-05-17T05:08:02.528Z,16.31
2016-05-17T05:09:02.531Z,16.31
2016-05-17T05:10:02.525Z,16.35
2016-05-17T05:11:02.538Z,16.28
2016-05-17T05:12:02.428Z,16.35
2016-05-17T05:13:02.598Z,16.13
2016-05-17T05:14:02.457Z,16.16
2016-05-17T05:15:02.629Z,16.24
2016-05-17T05:16:02.632Z,16.17
2016-05-17T05:17:02.635Z,16.26
2016-05-17T05:18:02.480Z,16.35
2016-05-17T05:19:02.624Z,16.1
2016-05-17T05:20:02.606Z,16.08
2016-05-17T05:21:02.598Z,16.23
2016-05-17T05:22:02.997Z,16.28
2016-05-17T05:23:02.583Z,16.23
2016-05-17T05:24:02.559Z,16.23
2016-05-17T05:25:02.566Z,16.38
2016-05-17T05:26:02.383Z,16.21
2016-05-17T05:27:02.529Z,16.31
2016-05-17T05:28:02.502Z,16.33
2016-05-17T05:29:02.491Z,16.29
2016-05-17T05:30:02.479Z,16.28
2016-05-17T05:31:02.467Z,16.26
2016-05-17T05:32:02.423Z,16.26
2016-05-17T05:33:02.443Z,16.29
2016-05-17T05:34:02.259Z,16.28
2016-05-17T05:35:02.245Z,16.36
2016-05-17T05:36:02.374Z,16.29
2016-05-17T05:37:02.471Z,16.26
2016-05-17T05:38:02.334Z,16.17
2016-05-17T05:39:02.165Z,16.2
2016-05-17T05:40:02.308Z,16.13
2016-05-17T05:41:02.279Z,16.12
2016-05-17T05:42:02.266Z,16.09
2016-05-17T05:43:02.254Z,16.04
2016-05-17T05:44:02.226Z,16.01
2016-05-17T05:45:02.212Z,15.98
2016-05-17T05:46:02.199Z,16.1
2016-05-17T05:47:02.155Z,16.33
2016-05-17T05:48:02.157Z,16.15
2016-05-17T05:49:02.146Z,16.15
2016-05-17T05:50:02.131Z,16.29
2016-05-17T05:51:01.947Z,16.28
2016-05-17T05:52:01.950Z,16.13
2016-05-17T05:53:02.062Z,16.05
2016-05-17T05:54:02.049Z,16.13
2016-05-17T05:55:02.037Z,16.08
2016-05-17T05:56:01.867Z,16.09
2016-05-17T05:57:02.011Z,16.1
2016-05-17T05:58:01.982Z,16.12
2016-05-17T05:59:01.969Z,16.13
2016-05-17T06:00:02.800Z,16.02
2016-05-17T06:01:01.928Z,16.13
2016-05-17T06:02:01.930Z,16.17
2016-05-17T06:03:01.886Z,16.29
2016-05-17T06:04:01.873Z,16.24
2016-05-17T06:05:01.860Z,16.36
2016-05-17T06:06:01.863Z,16.29
2016-05-17T06:07:02.255Z,16.31
2016-05-17T06:08:01.821Z,16.32
2016-05-17T06:09:01.793Z,16.28
2016-05-17T06:10:01.608Z,16.31
2016-05-17T06:11:01.594Z,16.38
2016-05-17T06:12:01.754Z,16.41
2016-05-17T06:13:01.709Z,16.54
2016-05-17T06:14:01.696Z,16.41
2016-05-17T06:15:01.684Z,16.5
2016-05-17T06:16:01.499Z,16.56
2016-05-17T06:17:01.657Z,16.49
2016-05-17T06:18:01.457Z,16.56
2016-05-17T06:19:01.616Z,16.53
2016-05-17T06:20:01.587Z,16.46
2016-05-17T06:21:01.560Z,16.36
2016-05-17T06:22:01.484Z,16.42
2016-05-17T06:23:01.533Z,16.43
2016-05-17T06:24:01.536Z,16.38
2016-05-17T06:25:01.507Z,16.29
2016-05-17T06:26:01.495Z,16.28
2016-05-17T06:27:01.326Z,16.33
2016-05-17T06:28:01.454Z,16.31
2016-05-17T06:29:01.439Z,16.38
2016-05-17T06:30:01.428Z,16.41
2016-05-17T06:31:01.398Z,16.51
2016-05-17T06:32:01.370Z,16.39
2016-05-17T06:33:01.358Z,16.35
2016-05-17T06:34:01.345Z,16.39
2016-05-17T06:35:01.331Z,16.56
2016-05-17T06:36:01.178Z,16.76
2016-05-17T06:37:01.306Z,16.57
2016-05-17T06:38:01.277Z,16.61
2016-05-17T06:39:01.092Z,16.71
2016-05-17T06:40:01.235Z,16.6
2016-05-17T06:41:01.066Z,16.49
2016-05-17T06:42:01.038Z,16.35
2016-05-17T06:43:01.181Z,16.54
2016-05-17T06:44:01.168Z,16.66
2016-05-17T06:45:00.999Z,16.64
2016-05-17T06:46:00.971Z,16.66
2016-05-17T06:47:01.129Z,16.78
2016-05-17T06:48:01.101Z,16.86
2016-05-17T06:49:00.931Z,16.93
2016-05-17T06:50:01.059Z,16.84
2016-05-17T06:51:01.046Z,17.01
2016-05-17T06:52:01.049Z,16.91
2016-05-17T06:53:01.020Z,16.91
2016-05-17T06:54:00.835Z,16.9
2016-05-17T06:55:00.995Z,16.96
2016-05-17T06:56:00.809Z,16.78
2016-05-17T06:57:00.797Z,16.78
2016-05-17T06:58:00.767Z,16.87
2016-05-17T06:59:00.912Z,16.83
2016-05-17T07:00:00.883Z,16.93
2016-05-17T07:01:00.714Z,16.94
2016-05-17T07:02:00.716Z,16.96
2016-05-17T07:03:00.688Z,16.93
2016-05-17T07:04:00.816Z,16.94
2016-05-17T07:05:00.802Z,16.87
2016-05-17T07:06:00.789Z,16.94
2016-05-17T07:07:00.761Z,17.02
2016-05-17T07:08:00.764Z,17.08
2016-05-17T07:09:00.735Z,17.04
2016-05-17T07:10:00.707Z,16.97
2016-05-17T07:11:00.552Z,16.9
2016-05-17T07:12:00.524Z,17.02
2016-05-17T07:13:00.683Z,17.14
2016-05-17T07:14:00.483Z,17.16
2016-05-17T07:15:00.626Z,17.24
2016-05-17T07:16:00.441Z,17.33
2016-05-17T07:17:00.569Z,17.16
2016-05-17T07:18:00.557Z,17.15
2016-05-17T07:19:00.402Z,17.14
2016-05-17T07:20:00.546Z,17.09
2016-05-17T07:21:00.517Z,17.12
2016-05-17T07:22:00.207Z,17.29
2016-05-17T07:23:00.492Z,17.42
2016-05-17T07:24:00.322Z,17.26
2016-05-17T07:25:00.451Z,17.36
2016-05-17T07:26:00.453Z,17.24
2016-05-17T07:27:00.409Z,17.31
2016-05-17T07:28:00.396Z,17.24
2016-05-17T07:29:00.383Z,17.41
2016-05-17T07:30:00.354Z,17.39
2016-05-17T07:31:00.341Z,17.41
2016-05-17T07:32:00.328Z,17.49
2016-05-17T07:33:00.315Z,17.39
2016-05-17T07:34:00.303Z,17.27
2016-05-17T07:35:00.289Z,17.45
2016-05-17T07:36:00.261Z,17.49
2016-05-17T07:37:00.108Z,17.57
2016-05-17T07:38:00.235Z,17.51
2016-05-17T07:39:00.206Z,17.54
2016-05-17T07:40:00.194Z,17.74
2016-05-17T07:41:00.180Z,17.72
2016-05-17T07:42:00.168Z,17.6
2016-05-17T07:43:00.124Z,17.64
2016-05-17T07:44:00.329Z,17.64
2016-05-17T07:45:00.129Z,17.74
2016-05-17T07:46:00.084Z,17.8
2016-05-17T07:47:00.072Z,17.74
2016-05-17T07:48:00.044Z,17.78
2016-05-17T07:49:00.062Z,17.65
2016-05-17T07:49:59.877Z,17.64
2016-05-17T07:50:59.863Z,17.67
2016-05-17T07:52:00.320Z,17.67
2016-05-17T07:52:59.963Z,17.64
2016-05-17T07:53:59.950Z,17.63
2016-05-17T07:54:59.937Z,17.64
2016-05-17T07:55:59.923Z,17.76
2016-05-17T07:56:59.912Z,17.85
2016-05-17T07:57:59.882Z,17.89
2016-05-17T07:58:59.870Z,18.01
2016-05-17T07:59:59.842Z,18.01
2016-05-17T08:00:59.828Z,18.04
2016-05-17T08:01:59.815Z,18.1
2016-05-17T08:02:59.803Z,18.22
2016-05-17T08:03:59.805Z,18.28
2016-05-17T08:04:59.605Z,18.28
2016-05-17T08:05:59.747Z,18.22
2016-05-17T08:06:59.736Z,18.18
2016-05-17T08:07:59.722Z,18.28
2016-05-17T08:08:59.552Z,18.25
2016-05-17T08:09:59.681Z,18.26
2016-05-17T08:10:59.667Z,18.34
2016-05-17T08:11:59.499Z,18.28
2016-05-17T08:12:59.689Z,18.37
2016-05-17T08:13:59.629Z,18.23
2016-05-17T08:14:59.600Z,18.18
2016-05-17T08:15:59.587Z,18.23
2016-05-17T08:16:59.402Z,18.23
2016-05-17T08:17:59.718Z,18.38
2016-05-17T08:18:59.532Z,18.45
2016-05-17T08:19:59.520Z,18.66
2016-05-17T08:20:59.507Z,18.73
2016-05-17T08:21:59.806Z,18.78
2016-05-17T08:22:59.482Z,18.81
2016-05-17T08:23:59.452Z,18.8
2016-05-17T08:24:59.424Z,18.74
2016-05-17T08:25:59.426Z,18.78
2016-05-17T08:26:59.726Z,18.8
2016-05-17T08:27:59.229Z,18.96
2016-05-17T08:28:59.356Z,18.96
2016-05-17T08:29:59.343Z,19.09
2016-05-17T08:30:59.331Z,18.95
2016-05-17T08:31:59.318Z,18.96
2016-05-17T08:32:59.289Z,18.84
2016-05-17T08:33:59.292Z,19.07
2016-05-17T08:34:59.264Z,19.04
2016-05-17T08:35:59.095Z,18.75
2016-05-17T08:36:59.456Z,18.92
2016-05-17T08:37:59.225Z,19.09
2016-05-17T08:38:59.212Z,19.22
2016-05-17T08:39:59.027Z,19.19
2016-05-17T08:40:59.202Z,19.14
2016-05-17T08:41:59.158Z,19.21
2016-05-17T08:42:59.128Z,19.26
2016-05-17T08:43:59.116Z,19.22
2016-05-17T08:45:58.965Z,19.07
2016-05-17T08:46:58.921Z,18.98
2016-05-17T08:48:13.064Z,18.99
2016-05-17T08:48:58.894Z,18.96
2016-05-17T08:49:59.022Z,18.86
2016-05-17T08:50:59.024Z,18.93
2016-05-17T08:51:59.121Z,18.89
2016-05-17T08:52:58.984Z,18.8
2016-05-17T08:53:58.971Z,18.9
2016-05-17T08:54:58.943Z,18.96
2016-05-17T08:55:58.913Z,19
2016-05-17T08:56:58.916Z,19.02
2016-05-17T08:57:58.748Z,19.12
2016-05-17T08:58:58.718Z,19.22
2016-05-17T08:59:58.862Z,19.24
2016-05-17T09:00:58.849Z,19.3
2016-05-17T09:01:58.679Z,19.41
2016-05-17T09:02:58.823Z,19.48
2016-05-17T09:03:58.638Z,19.4
2016-05-17T09:04:58.797Z,19.4
2016-05-17T09:05:58.612Z,19.39
2016-05-17T09:06:58.989Z,19.29
2016-05-17T09:07:58.727Z,19.47
2016-05-17T09:08:58.730Z,19.41
2016-05-17T09:09:58.545Z,19.45
2016-05-17T09:10:58.533Z,19.3
2016-05-17T09:11:58.660Z,19.31
2016-05-17T09:13:12.584Z,19.49
2016-05-17T09:13:58.633Z,19.54
2016-05-17T09:14:58.606Z,19.52
2016-05-17T09:15:58.608Z,19.51
2016-05-17T09:16:58.267Z,19.45
2016-05-17T09:17:58.441Z,19.54
2016-05-17T09:18:58.569Z,19.45
2016-05-17T09:19:58.399Z,19.47
2016-05-17T09:20:58.543Z,19.48
2016-05-17T09:21:58.812Z,19.52
2016-05-17T09:22:58.346Z,19.44
2016-05-17T09:23:58.474Z,19.51
2016-05-17T09:24:58.476Z,19.59
2016-05-17T09:25:58.448Z,19.66
2016-05-17T09:26:58.435Z,19.31
2016-05-17T09:27:58.249Z,19.44
2016-05-17T09:28:58.393Z,19.52
2016-05-17T09:29:58.240Z,19.64
2016-05-17T09:30:58.367Z,19.48
2016-05-17T09:31:58.182Z,19.47
2016-05-17T09:32:58.326Z,19.45
2016-05-17T09:33:58.345Z,19.45
2016-05-17T09:34:58.159Z,19.51
2016-05-17T09:35:58.287Z,19.59
2016-05-17T09:36:58.899Z,19.7
2016-05-17T09:37:58.323Z,19.76
2016-05-17T09:38:58.311Z,19.48
2016-05-17T09:39:58.220Z,19.64
2016-05-17T09:40:58.050Z,19.7
2016-05-17T09:41:58.037Z,19.73
2016-05-17T09:42:58.025Z,19.7
2016-05-17T09:43:58.167Z,19.76
2016-05-17T09:44:58.170Z,19.71
2016-05-17T09:45:58.141Z,19.89
2016-05-17T09:46:58.129Z,19.88
2016-05-17T09:47:58.116Z,19.94
2016-05-17T09:48:57.915Z,19.85
2016-05-17T09:49:58.074Z,19.96
2016-05-17T09:50:57.936Z,20.03
2016-05-17T09:51:58.143Z,19.91
2016-05-17T09:52:57.864Z,20.03
2016-05-17T09:53:58.008Z,20.04
2016-05-17T09:54:58.056Z,20.1
2016-05-17T09:55:57.966Z,20.09
2016-05-17T09:56:57.813Z,20.24
2016-05-17T09:57:57.940Z,20.36
2016-05-17T09:58:57.771Z,20.21
2016-05-17T09:59:57.976Z,20.1
2016-05-17T10:00:57.901Z,20.1
2016-05-17T10:01:57.888Z,20.04
2016-05-17T10:02:57.859Z,19.91
2016-05-17T10:03:57.706Z,19.81
2016-05-17T10:04:57.678Z,19.82
2016-05-17T10:05:57.820Z,20.04
2016-05-17T10:06:58.401Z,20.11
2016-05-17T10:07:57.795Z,20.25
2016-05-17T10:08:57.782Z,20.39
2016-05-17T10:09:57.612Z,20.59
2016-05-17T10:10:57.740Z,20.48
2016-05-17T10:11:58.586Z,20.65
2016-05-17T10:12:57.575Z,20.72
2016-05-17T10:13:57.561Z,20.8
2016-05-17T10:14:57.689Z,20.77
2016-05-17T10:15:57.973Z,20.69
2016-05-17T10:16:57.491Z,20.48
2016-05-17T10:17:57.697Z,20.63
2016-05-17T10:18:57.653Z,20.51
2016-05-17T10:19:57.280Z,20.56
2016-05-17T10:20:57.580Z,20.72
2016-05-17T10:21:57.583Z,20.62
2016-05-17T10:22:57.585Z,20.58
2016-05-17T10:23:57.541Z,20.82
2016-05-17T10:24:57.387Z,20.87
2016-05-17T10:25:57.516Z,20.9
2016-05-17T10:26:57.502Z,20.97
2016-05-17T10:27:57.332Z,21.17
2016-05-17T10:28:57.477Z,21.29
2016-05-17T10:29:57.463Z,21.36
2016-05-17T10:30:57.293Z,21.42
2016-05-17T10:31:57.422Z,21.55
2016-05-17T10:32:57.253Z,21.62
2016-05-17T10:33:57.396Z,21.98
2016-05-17T10:34:57.384Z,22.22
2016-05-17T10:35:57.370Z,22.22
2016-05-17T10:36:57.216Z,22.36
2016-05-17T10:37:57.188Z,22.23
2016-05-17T10:38:57.222Z,21.79
2016-05-17T10:39:57.381Z,21.76
2016-05-17T10:40:57.290Z,21.98
2016-05-17T10:41:57.293Z,21.95
2016-05-17T10:42:57.280Z,21.7
2016-05-17T10:43:57.298Z,21.82
2016-05-17T10:44:57.254Z,21.7
2016-05-17T10:45:57.381Z,21.64
2016-05-17T10:46:57.275Z,22.08
2016-05-17T10:47:57.184Z,22.33
2016-05-17T10:48:57.186Z,22.11
2016-05-17T10:49:57.220Z,22.3
2016-05-17T10:50:57.255Z,22.35
2016-05-17T10:51:57.430Z,22.29
2016-05-17T10:52:57.197Z,22.13
2016-05-17T10:53:57.122Z,22.1
2016-05-17T10:54:57.280Z,22.1
2016-05-17T10:55:57.096Z,22.11
2016-05-17T10:56:57.239Z,22.32
2016-05-17T10:57:57.085Z,22.11
2016-05-17T10:58:57.057Z,22.36
2016-05-17T10:59:56.888Z,22.75
2016-05-17T11:00:57.032Z,23.21
2016-05-17T11:01:56.893Z,23.2
2016-05-17T11:02:57.005Z,23.51
2016-05-17T11:03:56.820Z,23.69
2016-05-17T11:04:56.964Z,23.43
2016-05-17T11:05:56.951Z,23.47
2016-05-17T11:06:56.797Z,23.09
2016-05-17T11:07:56.784Z,23.28
2016-05-17T11:08:56.803Z,22.73
2016-05-17T11:09:56.915Z,22.66
2016-05-17T11:10:56.917Z,22.85
2016-05-17T11:11:56.889Z,22.7
2016-05-17T11:12:56.906Z,22.81
2016-05-17T11:13:56.878Z,22.9
2016-05-17T11:14:56.834Z,22.65
2016-05-17T11:15:57.071Z,22.9
2016-05-17T11:16:56.824Z,22.87
2016-05-17T11:17:56.795Z,22.59
2016-05-17T11:18:56.892Z,22.66
2016-05-17T11:19:56.786Z,23.15
2016-05-17T11:20:56.758Z,22.99
2016-05-17T11:21:57.009Z,23.08
2016-05-17T11:22:56.762Z,22.81
2016-05-17T11:23:56.750Z,22.87
2016-05-17T11:24:56.721Z,23.03
2016-05-17T11:25:56.739Z,23.25
2016-05-17T11:26:56.711Z,23.4
2016-05-17T11:27:56.557Z,23.47
2016-05-17T11:28:56.560Z,23.44
2016-05-17T11:29:56.546Z,23.24
2016-05-17T11:30:56.690Z,23.21
2016-05-17T11:31:56.693Z,23.4
2016-05-17T11:32:56.680Z,23
2016-05-17T11:33:56.573Z,23.15
2016-05-17T11:34:56.529Z,23.17
2016-05-17T11:35:56.782Z,23.84
2016-05-17T11:36:56.784Z,23.13
2016-05-17T11:37:56.520Z,23.68
2016-05-17T11:38:56.837Z,24.03
2016-05-17T11:39:56.651Z,24.13
2016-05-17T11:40:56.639Z,24.03
2016-05-17T11:41:56.517Z,24.16
2016-05-17T11:42:56.644Z,24.24
2016-05-17T11:43:56.647Z,24.02
2016-05-17T11:44:56.633Z,24.61
2016-05-17T11:45:56.636Z,24.76
2016-05-17T11:46:56.655Z,24.93
2016-05-17T11:47:56.642Z,24.78
2016-05-17T11:48:56.613Z,24.76
2016-05-17T11:49:56.460Z,25.06
2016-05-17T11:50:56.603Z,25.11
2016-05-17T11:51:56.793Z,25.4
2016-05-17T11:52:56.608Z,25.66
2016-05-17T11:53:56.627Z,26.05
2016-05-17T11:54:56.457Z,26.1
2016-05-17T11:55:56.601Z,26.05
2016-05-17T11:56:56.604Z,26.16
2016-05-17T11:57:56.606Z,26.15
2016-05-17T11:58:56.610Z,26.66
2016-05-17T11:59:56.597Z,27.18
2016-05-17T12:00:56.598Z,26.84
2016-05-17T12:01:56.601Z,25.87
2016-05-17T12:02:56.604Z,25.93
2016-05-17T12:03:56.591Z,26.26
2016-05-17T12:04:56.609Z,26.44
2016-05-17T12:05:56.582Z,26.59
2016-05-17T12:06:56.693Z,26.41
2016-05-17T12:07:56.586Z,26.47
2016-05-17T12:08:56.432Z,26.05
2016-05-17T12:09:56.576Z,26.45
2016-05-17T12:10:56.422Z,26.1
2016-05-17T12:11:56.581Z,25.5
2016-05-17T12:12:56.584Z,25.77
2016-05-17T12:13:56.571Z,25.55
2016-05-17T12:14:56.417Z,25.85
2016-05-17T12:15:56.420Z,25.62
2016-05-17T12:16:56.564Z,26
2016-05-17T12:17:56.581Z,26.38
2016-05-17T12:18:56.600Z,25.51
2016-05-17T12:19:56.509Z,25.7
2016-05-17T12:20:56.637Z,26.21
2016-05-17T12:21:56.436Z,26.9
2016-05-17T12:22:56.564Z,26.62
2016-05-17T12:23:56.566Z,26.38
2016-05-17T12:24:56.413Z,26.09
2016-05-17T12:25:56.572Z,25.73
2016-05-17T12:26:56.560Z,26.07
2016-05-17T12:27:56.546Z,26.55
2016-05-17T12:28:56.408Z,25.9
2016-05-17T12:29:56.568Z,25.62
2016-05-17T12:30:56.555Z,26.1
2016-05-17T12:31:56.557Z,26.58
2016-05-17T12:32:56.576Z,26.9
2016-05-17T12:33:56.407Z,26.88
2016-05-17T12:34:56.565Z,26.22
2016-05-17T12:35:56.552Z,26.63
2016-05-17T12:36:56.414Z,26.51
2016-05-17T12:37:56.573Z,26.48
2016-05-17T12:38:56.560Z,26.6
2016-05-17T12:39:56.407Z,26.13
2016-05-17T12:40:56.550Z,26.43
2016-05-17T12:41:56.256Z,26.55
2016-05-17T12:42:56.571Z,26.97
2016-05-17T12:43:56.559Z,27.25
2016-05-17T12:44:56.248Z,27.92
2016-05-17T12:45:56.407Z,27.68
2016-05-17T12:46:56.551Z,26.88
2016-05-17T12:47:56.553Z,26.15
2016-05-17T12:48:56.539Z,26.06
2016-05-17T12:49:56.542Z,26.16
2016-05-17T12:50:56.530Z,26.45
2016-05-17T12:51:56.548Z,26.44
2016-05-17T12:52:56.379Z,25.95
2016-05-17T12:53:56.538Z,26.34
2016-05-17T12:54:56.385Z,26.52
2016-05-17T12:55:56.544Z,27.21